sensor_id;sensor_type;location;lat;lon;timestamp;P1;durP1;ratioP1;P2;durP2;ratioP2
9280;SDS011;4679;47.966;7.958;2023-08-06T06:53:17;0.10;;;0.00;;
9280;SDS011;4679;47.966;7.958;2023-08-06T06:55:18;0.20;;;0.10;;
9280;SDS011;4679;47.966;7.958;2023-08-06T06:57:20;0.73;;;0.10;;
9280;SDS011;4679;47.966;7.958;2023-08-06T06:59:22;0.20;;;0.20;;
9280;SDS011;4679;47.966;7.958;2023-08-06T07:01:23;0.17;;;0.10;;
9280;SDS011;4679;47.966;7.958;2023-08-06T07:03:25;0.10;;;0.10;;
9280;SDS011;4679;47.966;7.958;2023-08-06T07:05:27;0.20;;;0.03;;
9280;SDS011;4679;47.966;7.958;2023-08-06T07:07:29;0.27;;;0.00;;
9280;SDS011;4679;47.966;7.958;2023-08-06T07:09:32;0.10;;;0.10;;
9280;SDS011;4679;47.966;7.958;2023-08-06T07:11:33;0.00;;;0.00;;
9280;SDS011;4679;47.966;7.958;2023-08-06T07:13:35;0.00;;;0.00;;
9280;SDS011;4679;47.966;7.958;2023-08-06T07:15:37;1.03;;;0.00;;
9280;SDS011;4679;47.966;7.958;2023-08-06T07:17:38;0.63;;;0.00;;
9280;SDS011;4679;47.966;7.958;2023-08-06T07:19:40;0.00;;;0.00;;
9280;SDS011;4679;47.966;7.958;2023-08-06T07:21:42;0.00;;;0.00;;
9280;SDS011;4679;47.966;7.958;2023-08-06T07:23:43;0.10;;;0.00;;
9280;SDS011;4679;47.966;7.958;2023-08-06T07:25:45;0.00;;;0.00;;
9280;SDS011;4679;47.966;7.958;2023-08-06T07:27:47;0.00;;;0.00;;
9280;SDS011;4679;47.966;7.958;2023-08-06T07:29:49;0.10;;;0.07;;
9280;SDS011;4679;47.966;7.958;2023-08-06T07:31:51;0.00;;;0.00;;
9280;SDS011;4679;47.966;7.958;2023-08-06T07:33:52;0.10;;;0.10;;
9280;SDS011;4679;47.966;7.958;2023-08-06T07:35:54;0.00;;;0.00;;
9280;SDS011;4679;47.966;7.958;2023-08-06T07:37:55;0.37;;;0.00;;
9280;SDS011;4679;47.966;7.958;2023-08-06T07:39:58;0.00;;;0.00;;
9280;SDS011;4679;47.966;7.958;2023-08-06T07:42:01;0.00;;;0.00;;
9280;SDS011;4679;47.966;7.958;2023-08-06T07:44:04;0.00;;;0.00;;
9280;SDS011;4679;47.966;7.958;2023-08-06T07:46:06;0.00;;;0.00;;
9280;SDS011;4679;47.966;7.958;2023-08-06T07:48:08;0.67;;;0.00;;
9280;SDS011;4679;47.966;7.958;2023-08-06T07:50:09;0.10;;;0.00;;
9280;SDS011;4679;47.966;7.958;2023-08-06T07:52:11;0.10;;;0.00;;
9280;SDS011;4679;47.966;7.958;2023-08-06T07:54:13;0.00;;;0.00;;
9280;SDS011;4679;47.966;7.958;2023-08-06T07:56:15;0.10;;;0.07;;
9280;SDS011;4679;47.966;7.958;2023-08-06T07:58:18;0.00;;;0.00;;
9280;SDS011;4679;47.966;7.958;2023-08-06T08:00:20;0.00;;;0.00;;
9280;SDS011;4679;47.966;7.958;2023-08-06T08:02:22;0.00;;;0.00;;
9280;SDS011;4679;47.966;7.958;2023-08-06T08:04:23;0.10;;;0.00;;
9280;SDS011;4679;47.966;7.958;2023-08-06T08:06:25;0.00;;;0.00;;
9280;SDS011;4679;47.966;7.958;2023-08-06T08:08:27;0.07;;;0.00;;
9280;SDS011;4679;47.966;7.958;2023-08-06T08:10:29;0.10;;;0.00;;
9280;SDS011;4679;47.966;7.958;2023-08-06T08:12:30;0.00;;;0.00;;
9280;SDS011;4679;47.966;7.958;2023-08-06T08:14:33;0.00;;;0.00;;
9280;SDS011;4679;47.966;7.958;2023-08-06T08:16:35;0.13;;;0.10;;
9280;SDS011;4679;47.966;7.958;2023-08-06T08:18:37;0.00;;;0.00;;
9280;SDS011;4679;47.966;7.958;2023-08-06T08:20:38;0.00;;;0.00;;
9280;SDS011;4679;47.966;7.958;2023-08-06T08:22:39;0.30;;;0.00;;
9280;SDS011;4679;47.966;7.958;2023-08-06T08:24:41;0.10;;;0.00;;
9280;SDS011;4679;47.966;7.958;2023-08-06T08:26:42;0.00;;;0.00;;
9280;SDS011;4679;47.966;7.958;2023-08-06T08:28:43;0.00;;;0.00;;
9280;SDS011;4679;47.966;7.958;2023-08-06T08:30:46;0.00;;;0.00;;
9280;SDS011;4679;47.966;7.958;2023-08-06T08:32:48;0.10;;;0.00;;
9280;SDS011;4679;47.966;7.958;2023-08-06T08:34:50;0.00;;;0.00;;
9280;SDS011;4679;47.966;7.958;2023-08-06T08:36:51;0.20;;;0.10;;
9280;SDS011;4679;47.966;7.958;2023-08-06T08:38:53;0.03;;;0.00;;
9280;SDS011;4679;47.966;7.958;2023-08-06T08:40:55;0.20;;;0.00;;
9280;SDS011;4679;47.966;7.958;2023-08-06T08:42:57;0.97;;;0.30;;
9280;SDS011;4679;47.966;7.958;2023-08-06T08:45:00;0.07;;;0.00;;
9280;SDS011;4679;47.966;7.958;2023-08-06T08:47:04;0.10;;;0.00;;
9280;SDS011;4679;47.966;7.958;2023-08-06T08:49:06;0.20;;;0.00;;
9280;SDS011;4679;47.966;7.958;2023-08-06T08:51:08;0.00;;;0.00;;
9280;SDS011;4679;47.966;7.958;2023-08-06T08:53:11;0.00;;;0.00;;
9280;SDS011;4679;47.966;7.958;2023-08-06T08:55:15;0.10;;;0.10;;
9280;SDS011;4679;47.966;7.958;2023-08-06T08:57:17;0.00;;;0.00;;
9280;SDS011;4679;47.966;7.958;2023-08-06T08:59:18;0.00;;;0.00;;
9280;SDS011;4679;47.966;7.958;2023-08-06T09:01:20;0.00;;;0.00;;
9280;SDS011;4679;47.966;7.958;2023-08-06T09:03:24;0.00;;;0.00;;
9280;SDS011;4679;47.966;7.958;2023-08-06T09:05:27;0.20;;;0.07;;
9280;SDS011;4679;47.966;7.958;2023-08-06T09:07:31;0.00;;;0.00;;
9280;SDS011;4679;47.966;7.958;2023-08-06T09:09:36;0.10;;;0.00;;
9280;SDS011;4679;47.966;7.958;2023-08-06T09:11:42;0.60;;;0.07;;
9280;SDS011;4679;47.966;7.958;2023-08-06T09:13:45;0.13;;;0.00;;
9280;SDS011;4679;47.966;7.958;2023-08-06T09:15:47;0.00;;;0.00;;
9280;SDS011;4679;47.966;7.958;2023-08-06T09:17:50;0.00;;;0.00;;
9280;SDS011;4679;47.966;7.958;2023-08-06T09:19:53;0.00;;;0.00;;
9280;SDS011;4679;47.966;7.958;2023-08-06T09:21:55;0.00;;;0.00;;
9280;SDS011;4679;47.966;7.958;2023-08-06T09:23:58;0.10;;;0.00;;
9280;SDS011;4679;47.966;7.958;2023-08-06T09:26:00;0.10;;;0.00;;
9280;SDS011;4679;47.966;7.958;2023-08-06T09:28:02;0.10;;;0.07;;
9280;SDS011;4679;47.966;7.958;2023-08-06T09:30:05;0.03;;;0.00;;
9280;SDS011;4679;47.966;7.958;2023-08-06T09:32:08;0.00;;;0.00;;
9280;SDS011;4679;47.966;7.958;2023-08-06T09:34:12;0.30;;;0.00;;
9280;SDS011;4679;47.966;7.958;2023-08-06T09:36:18;0.00;;;0.00;;
9280;SDS011;4679;47.966;7.958;2023-08-06T09:38:19;0.30;;;0.00;;
9280;SDS011;4679;47.966;7.958;2023-08-06T09:40:24;0.47;;;0.00;;
9280;SDS011;4679;47.966;7.958;2023-08-06T09:42:27;0.00;;;0.00;;
9280;SDS011;4679;47.966;7.958;2023-08-06T09:44:30;0.00;;;0.00;;
9280;SDS011;4679;47.966;7.958;2023-08-06T09:46:33;0.10;;;0.00;;
9280;SDS011;4679;47.966;7.958;2023-08-06T09:48:34;0.10;;;0.00;;
9280;SDS011;4679;47.966;7.958;2023-08-06T09:50:35;0.47;;;0.00;;
9280;SDS011;4679;47.966;7.958;2023-08-06T09:52:39;0.00;;;0.00;;
9280;SDS011;4679;47.966;7.958;2023-08-06T09:54:42;0.27;;;0.00;;
9280;SDS011;4679;47.966;7.958;2023-08-06T09:56:44;0.00;;;0.00;;
9280;SDS011;4679;47.966;7.958;2023-08-06T09:58:45;0.10;;;0.00;;
9280;SDS011;4679;47.966;7.958;2023-08-06T10:00:50;0.00;;;0.00;;
9280;SDS011;4679;47.966;7.958;2023-08-06T10:02:51;0.00;;;0.00;;
9280;SDS011;4679;47.966;7.958;2023-08-06T10:04:56;0.00;;;0.00;;
9280;SDS011;4679;47.966;7.958;2023-08-06T10:06:59;0.00;;;0.00;;
9280;SDS011;4679;47.966;7.958;2023-08-06T10:09:03;0.20;;;0.00;;
9280;SDS011;4679;47.966;7.958;2023-08-06T10:11:05;0.03;;;0.00;;
9280;SDS011;4679;47.966;7.958;2023-08-06T10:13:07;0.13;;;0.00;;
9280;SDS011;4679;47.966;7.958;2023-08-06T10:15:12;0.00;;;0.00;;
9280;SDS011;4679;47.966;7.958;2023-08-06T10:17:16;0.07;;;0.00;;
9280;SDS011;4679;47.966;7.958;2023-08-06T10:19:18;0.20;;;0.10;;
9280;SDS011;4679;47.966;7.958;2023-08-06T10:21:22;0.00;;;0.00;;
9280;SDS011;4679;47.966;7.958;2023-08-06T10:23:32;1.57;;;0.10;;
9280;SDS011;4679;47.966;7.958;2023-08-06T10:25:40;0.00;;;0.00;;
9280;SDS011;4679;47.966;7.958;2023-08-06T10:27:53;0.00;;;0.00;;
9280;SDS011;4679;47.966;7.958;2023-08-06T10:29:55;0.10;;;0.10;;
9280;SDS011;4679;47.966;7.958;2023-08-06T10:31:58;0.67;;;0.00;;
9280;SDS011;4679;47.966;7.958;2023-08-06T10:34:01;0.20;;;0.10;;
9280;SDS011;4679;47.966;7.958;2023-08-06T10:36:03;0.60;;;0.00;;
9280;SDS011;4679;47.966;7.958;2023-08-06T10:38:09;0.00;;;0.00;;
9280;SDS011;4679;47.966;7.958;2023-08-06T10:40:13;0.00;;;0.00;;
9280;SDS011;4679;47.966;7.958;2023-08-06T10:42:23;1.27;;;0.20;;
9280;SDS011;4679;47.966;7.958;2023-08-06T10:44:28;0.00;;;0.00;;
9280;SDS011;4679;47.966;7.958;2023-08-06T10:46:30;0.10;;;0.10;;
9280;SDS011;4679;47.966;7.958;2023-08-06T10:48:33;0.00;;;0.00;;
9280;SDS011;4679;47.966;7.958;2023-08-06T10:50:36;0.03;;;0.00;;
9280;SDS011;4679;47.966;7.958;2023-08-06T10:52:38;0.00;;;0.00;;
9280;SDS011;4679;47.966;7.958;2023-08-06T10:54:38;0.10;;;0.00;;
9280;SDS011;4679;47.966;7.958;2023-08-06T10:56:40;0.13;;;0.00;;
9280;SDS011;4679;47.966;7.958;2023-08-06T10:58:44;0.00;;;0.00;;
9280;SDS011;4679;47.966;7.958;2023-08-06T11:00:46;0.00;;;0.00;;
9280;SDS011;4679;47.966;7.958;2023-08-06T11:02:48;0.20;;;0.00;;
9280;SDS011;4679;47.966;7.958;2023-08-06T11:04:50;0.10;;;0.10;;
9280;SDS011;4679;47.966;7.958;2023-08-06T11:06:52;0.00;;;0.00;;
9280;SDS011;4679;47.966;7.958;2023-08-06T11:08:54;0.00;;;0.00;;
9280;SDS011;4679;47.966;7.958;2023-08-06T11:10:57;0.00;;;0.00;;
9280;SDS011;4679;47.966;7.958;2023-08-06T11:13:09;0.10;;;0.10;;
9280;SDS011;4679;47.966;7.958;2023-08-06T11:15:12;0.20;;;0.00;;
9280;SDS011;4679;47.966;7.958;2023-08-06T11:17:14;0.20;;;0.10;;
9280;SDS011;4679;47.966;7.958;2023-08-06T11:19:15;0.10;;;0.00;;
9280;SDS011;4679;47.966;7.958;2023-08-06T11:21:18;0.00;;;0.00;;
9280;SDS011;4679;47.966;7.958;2023-08-06T11:23:20;0.00;;;0.00;;
9280;SDS011;4679;47.966;7.958;2023-08-06T11:25:23;1.60;;;0.00;;
9280;SDS011;4679;47.966;7.958;2023-08-06T11:27:25;0.60;;;0.10;;
9280;SDS011;4679;47.966;7.958;2023-08-06T11:29:28;0.10;;;0.10;;
9280;SDS011;4679;47.966;7.958;2023-08-06T11:31:31;0.10;;;0.00;;
9280;SDS011;4679;47.966;7.958;2023-08-06T11:33:33;0.00;;;0.00;;
9280;SDS011;4679;47.966;7.958;2023-08-06T11:35:34;0.30;;;0.30;;
9280;SDS011;4679;47.966;7.958;2023-08-06T11:37:37;0.23;;;0.00;;
9280;SDS011;4679;47.966;7.958;2023-08-06T11:39:46;0.00;;;0.00;;
9280;SDS011;4679;47.966;7.958;2023-08-06T11:41:49;0.00;;;0.00;;
9280;SDS011;4679;47.966;7.958;2023-08-06T11:43:51;0.10;;;0.00;;
9280;SDS011;4679;47.966;7.958;2023-08-06T11:45:54;0.03;;;0.00;;
9280;SDS011;4679;47.966;7.958;2023-08-06T11:47:57;1.03;;;0.10;;
9280;SDS011;4679;47.966;7.958;2023-08-06T11:50:00;0.00;;;0.00;;
9280;SDS011;4679;47.966;7.958;2023-08-06T11:52:06;0.00;;;0.00;;
9280;SDS011;4679;47.966;7.958;2023-08-06T11:54:09;0.00;;;0.00;;
9280;SDS011;4679;47.966;7.958;2023-08-06T11:56:11;0.10;;;0.10;;
9280;SDS011;4679;47.966;7.958;2023-08-06T11:58:13;0.00;;;0.00;;
9280;SDS011;4679;47.966;7.958;2023-08-06T12:00:18;0.10;;;0.00;;
9280;SDS011;4679;47.966;7.958;2023-08-06T12:02:22;0.10;;;0.10;;
9280;SDS011;4679;47.966;7.958;2023-08-06T12:04:29;0.10;;;0.10;;
9280;SDS011;4679;47.966;7.958;2023-08-06T12:06:30;0.00;;;0.00;;
9280;SDS011;4679;47.966;7.958;2023-08-06T12:08:32;0.00;;;0.00;;
9280;SDS011;4679;47.966;7.958;2023-08-06T12:10:34;1.33;;;0.10;;
9280;SDS011;4679;47.966;7.958;2023-08-06T12:12:35;0.20;;;0.07;;
9280;SDS011;4679;47.966;7.958;2023-08-06T12:14:38;0.77;;;0.03;;
9280;SDS011;4679;47.966;7.958;2023-08-06T12:16:39;0.20;;;0.00;;
9280;SDS011;4679;47.966;7.958;2023-08-06T12:18:41;0.10;;;0.10;;
9280;SDS011;4679;47.966;7.958;2023-08-06T12:20:44;0.70;;;0.10;;
9280;SDS011;4679;47.966;7.958;2023-08-06T12:22:45;0.20;;;0.20;;
9280;SDS011;4679;47.966;7.958;2023-08-06T12:24:47;0.20;;;0.10;;
9280;SDS011;4679;47.966;7.958;2023-08-06T12:26:49;1.10;;;0.30;;
9280;SDS011;4679;47.966;7.958;2023-08-06T12:28:49;0.23;;;0.10;;
9280;SDS011;4679;47.966;7.958;2023-08-06T12:30:55;0.10;;;0.10;;
9280;SDS011;4679;47.966;7.958;2023-08-06T12:32:56;0.10;;;0.10;;
9280;SDS011;4679;47.966;7.958;2023-08-06T12:34:58;0.87;;;0.10;;
9280;SDS011;4679;47.966;7.958;2023-08-06T12:37:02;0.17;;;0.10;;
9280;SDS011;4679;47.966;7.958;2023-08-06T12:39:03;0.83;;;0.10;;
9280;SDS011;4679;47.966;7.958;2023-08-06T12:41:05;0.10;;;0.10;;
9280;SDS011;4679;47.966;7.958;2023-08-06T12:43:07;0.30;;;0.07;;
9280;SDS011;4679;47.966;7.958;2023-08-06T12:45:08;0.30;;;0.20;;
9280;SDS011;4679;47.966;7.958;2023-08-06T12:47:10;0.83;;;0.10;;
9280;SDS011;4679;47.966;7.958;2023-08-06T12:49:12;0.23;;;0.10;;
9280;SDS011;4679;47.966;7.958;2023-08-06T12:51:13;0.20;;;0.10;;
9280;SDS011;4679;47.966;7.958;2023-08-06T12:53:16;0.40;;;0.23;;
9280;SDS011;4679;47.966;7.958;2023-08-06T12:55:17;0.30;;;0.10;;
9280;SDS011;4679;47.966;7.958;2023-08-06T12:57:19;0.53;;;0.27;;
9280;SDS011;4679;47.966;7.958;2023-08-06T12:59:21;0.20;;;0.10;;
9280;SDS011;4679;47.966;7.958;2023-08-06T13:01:23;2.73;;;0.53;;
9280;SDS011;4679;47.966;7.958;2023-08-06T13:03:24;4.57;;;0.60;;
9280;SDS011;4679;47.966;7.958;2023-08-06T13:05:26;1.07;;;0.20;;
9280;SDS011;4679;47.966;7.958;2023-08-06T13:07:27;0.30;;;0.20;;
9280;SDS011;4679;47.966;7.958;2023-08-06T13:09:30;1.10;;;0.27;;
9280;SDS011;4679;47.966;7.958;2023-08-06T13:11:31;0.40;;;0.20;;
9280;SDS011;4679;47.966;7.958;2023-08-06T13:13:33;1.23;;;0.20;;
9280;SDS011;4679;47.966;7.958;2023-08-06T13:15:35;0.37;;;0.10;;
9280;SDS011;4679;47.966;7.958;2023-08-06T13:17:37;0.40;;;0.20;;
9280;SDS011;4679;47.966;7.958;2023-08-06T13:19:38;0.20;;;0.20;;
9280;SDS011;4679;47.966;7.958;2023-08-06T13:21:59;0.20;;;0.10;;
9280;SDS011;4679;47.966;7.958;2023-08-06T13:24:04;0.93;;;0.30;;
9280;SDS011;4679;47.966;7.958;2023-08-06T13:26:07;0.40;;;0.20;;
9280;SDS011;4679;47.966;7.958;2023-08-06T13:28:08;0.10;;;0.10;;
9280;SDS011;4679;47.966;7.958;2023-08-06T13:30:10;0.20;;;0.20;;
9280;SDS011;4679;47.966;7.958;2023-08-06T13:32:11;0.30;;;0.17;;
9280;SDS011;4679;47.966;7.958;2023-08-06T13:34:13;0.23;;;0.10;;
9280;SDS011;4679;47.966;7.958;2023-08-06T13:36:16;0.10;;;0.10;;
9280;SDS011;4679;47.966;7.958;2023-08-06T13:38:17;0.20;;;0.20;;
9280;SDS011;4679;47.966;7.958;2023-08-06T13:40:19;0.30;;;0.30;;
9280;SDS011;4679;47.966;7.958;2023-08-06T13:42:22;0.43;;;0.10;;
9280;SDS011;4679;47.966;7.958;2023-08-06T13:44:23;0.23;;;0.20;;
9280;SDS011;4679;47.966;7.958;2023-08-06T13:46:25;0.10;;;0.10;;
9280;SDS011;4679;47.966;7.958;2023-08-06T13:48:27;0.20;;;0.20;;
9280;SDS011;4679;47.966;7.958;2023-08-06T13:50:28;0.40;;;0.30;;
9280;SDS011;4679;47.966;7.958;2023-08-06T13:52:30;0.40;;;0.10;;
9280;SDS011;4679;47.966;7.958;2023-08-06T13:54:32;0.60;;;0.20;;
9280;SDS011;4679;47.966;7.958;2023-08-06T13:56:34;0.17;;;0.17;;
9280;SDS011;4679;47.966;7.958;2023-08-06T13:58:39;1.53;;;0.20;;
9280;SDS011;4679;47.966;7.958;2023-08-06T14:00:40;0.20;;;0.20;;
9280;SDS011;4679;47.966;7.958;2023-08-06T14:02:42;0.37;;;0.30;;
9280;SDS011;4679;47.966;7.958;2023-08-06T14:04:45;0.30;;;0.20;;
9280;SDS011;4679;47.966;7.958;2023-08-06T14:06:46;0.20;;;0.20;;
9280;SDS011;4679;47.966;7.958;2023-08-06T14:08:48;0.93;;;0.10;;
9280;SDS011;4679;47.966;7.958;2023-08-06T14:10:50;0.43;;;0.43;;
9280;SDS011;4679;47.966;7.958;2023-08-06T14:12:51;0.43;;;0.10;;
9280;SDS011;4679;47.966;7.958;2023-08-06T14:14:55;0.20;;;0.20;;
9280;SDS011;4679;47.966;7.958;2023-08-06T14:16:56;0.13;;;0.13;;
9280;SDS011;4679;47.966;7.958;2023-08-06T14:18:58;0.20;;;0.20;;
9280;SDS011;4679;47.966;7.958;2023-08-06T14:21:00;0.20;;;0.20;;
9280;SDS011;4679;47.966;7.958;2023-08-06T14:23:03;0.33;;;0.30;;
9280;SDS011;4679;47.966;7.958;2023-08-06T14:25:05;0.20;;;0.20;;
9280;SDS011;4679;47.966;7.958;2023-08-06T14:27:07;0.20;;;0.20;;
9280;SDS011;4679;47.966;7.958;2023-08-06T14:29:09;0.30;;;0.20;;
9280;SDS011;4679;47.966;7.958;2023-08-06T14:31:12;1.03;;;0.30;;
9280;SDS011;4679;47.966;7.958;2023-08-06T14:33:14;0.77;;;0.30;;
9280;SDS011;4679;47.966;7.958;2023-08-06T14:35:16;0.20;;;0.20;;
9280;SDS011;4679;47.966;7.958;2023-08-06T14:37:18;0.20;;;0.20;;
9280;SDS011;4679;47.966;7.958;2023-08-06T14:39:20;1.43;;;0.60;;
9280;SDS011;4679;47.966;7.958;2023-08-06T14:41:22;0.57;;;0.40;;
9280;SDS011;4679;47.966;7.958;2023-08-06T14:43:24;1.90;;;0.40;;
9280;SDS011;4679;47.966;7.958;2023-08-06T14:45:26;0.50;;;0.40;;
9280;SDS011;4679;47.966;7.958;2023-08-06T14:47:29;0.57;;;0.20;;
9280;SDS011;4679;47.966;7.958;2023-08-06T14:49:30;0.30;;;0.30;;
9280;SDS011;4679;47.966;7.958;2023-08-06T14:51:32;0.90;;;0.40;;
9280;SDS011;4679;47.966;7.958;2023-08-06T14:53:35;0.20;;;0.20;;
9280;SDS011;4679;47.966;7.958;2023-08-06T14:55:37;0.83;;;0.30;;
9280;SDS011;4679;47.966;7.958;2023-08-06T14:57:39;0.83;;;0.30;;
9280;SDS011;4679;47.966;7.958;2023-08-06T14:59:40;0.50;;;0.20;;
9280;SDS011;4679;47.966;7.958;2023-08-06T15:01:42;0.30;;;0.30;;
9280;SDS011;4679;47.966;7.958;2023-08-06T15:03:44;0.20;;;0.20;;
9280;SDS011;4679;47.966;7.958;2023-08-06T15:05:46;0.20;;;0.20;;
9280;SDS011;4679;47.966;7.958;2023-08-06T15:07:50;0.80;;;0.30;;
9280;SDS011;4679;47.966;7.958;2023-08-06T15:09:53;0.20;;;0.20;;
9280;SDS011;4679;47.966;7.958;2023-08-06T15:11:55;0.20;;;0.10;;
9280;SDS011;4679;47.966;7.958;2023-08-06T15:13:57;0.30;;;0.30;;
9280;SDS011;4679;47.966;7.958;2023-08-06T15:16:01;0.30;;;0.30;;
9280;SDS011;4679;47.966;7.958;2023-08-06T15:18:02;0.30;;;0.30;;
9280;SDS011;4679;47.966;7.958;2023-08-06T15:20:07;0.40;;;0.30;;
9280;SDS011;4679;47.966;7.958;2023-08-06T15:22:09;1.53;;;0.40;;
9280;SDS011;4679;47.966;7.958;2023-08-06T15:24:12;0.20;;;0.20;;
9280;SDS011;4679;47.966;7.958;2023-08-06T15:26:14;0.27;;;0.27;;
9280;SDS011;4679;47.966;7.958;2023-08-06T15:28:15;0.43;;;0.40;;
9280;SDS011;4679;47.966;7.958;2023-08-06T15:30:17;0.30;;;0.30;;
9280;SDS011;4679;47.966;7.958;2023-08-06T15:32:20;0.30;;;0.20;;
9280;SDS011;4679;47.966;7.958;2023-08-06T15:34:23;1.03;;;0.50;;
9280;SDS011;4679;47.966;7.958;2023-08-06T15:36:26;0.30;;;0.30;;
9280;SDS011;4679;47.966;7.958;2023-08-06T15:38:27;0.37;;;0.30;;
9280;SDS011;4679;47.966;7.958;2023-08-06T15:40:29;0.50;;;0.30;;
9280;SDS011;4679;47.966;7.958;2023-08-06T15:42:30;0.80;;;0.40;;
9280;SDS011;4679;47.966;7.958;2023-08-06T15:44:31;0.40;;;0.40;;
9280;SDS011;4679;47.966;7.958;2023-08-06T15:46:33;0.40;;;0.40;;
9280;SDS011;4679;47.966;7.958;2023-08-06T15:48:36;0.37;;;0.37;;
9280;SDS011;4679;47.966;7.958;2023-08-06T15:50:37;0.27;;;0.27;;
9280;SDS011;4679;47.966;7.958;2023-08-06T15:52:41;0.50;;;0.30;;
9280;SDS011;4679;47.966;7.958;2023-08-06T15:54:43;0.60;;;0.60;;
9280;SDS011;4679;47.966;7.958;2023-08-06T15:56:45;0.50;;;0.43;;
9280;SDS011;4679;47.966;7.958;2023-08-06T15:58:47;1.33;;;0.30;;
9280;SDS011;4679;47.966;7.958;2023-08-06T16:00:48;1.13;;;0.40;;
9280;SDS011;4679;47.966;7.958;2023-08-06T16:02:50;0.50;;;0.40;;
9280;SDS011;4679;47.966;7.958;2023-08-06T16:04:51;0.83;;;0.30;;
9280;SDS011;4679;47.966;7.958;2023-08-06T16:06:54;0.30;;;0.30;;
9280;SDS011;4679;47.966;7.958;2023-08-06T16:08:57;0.37;;;0.30;;
9280;SDS011;4679;47.966;7.958;2023-08-06T16:10:59;0.93;;;0.30;;
9280;SDS011;4679;47.966;7.958;2023-08-06T16:13:01;0.77;;;0.50;;
9280;SDS011;4679;47.966;7.958;2023-08-06T16:15:03;0.47;;;0.30;;
9280;SDS011;4679;47.966;7.958;2023-08-06T16:17:05;0.40;;;0.40;;
9280;SDS011;4679;47.966;7.958;2023-08-06T16:19:07;0.50;;;0.50;;
9280;SDS011;4679;47.966;7.958;2023-08-06T16:21:09;0.40;;;0.40;;
9280;SDS011;4679;47.966;7.958;2023-08-06T16:23:10;1.47;;;0.40;;
9280;SDS011;4679;47.966;7.958;2023-08-06T16:25:13;2.57;;;0.43;;
9280;SDS011;4679;47.966;7.958;2023-08-06T16:27:15;1.17;;;0.40;;
9280;SDS011;4679;47.966;7.958;2023-08-06T16:29:17;3.40;;;0.43;;
9280;SDS011;4679;47.966;7.958;2023-08-06T16:31:19;0.83;;;0.40;;
9280;SDS011;4679;47.966;7.958;2023-08-06T16:33:19;1.37;;;0.50;;
9280;SDS011;4679;47.966;7.958;2023-08-06T16:35:21;0.50;;;0.40;;
9280;SDS011;4679;47.966;7.958;2023-08-06T16:37:23;0.37;;;0.30;;
9280;SDS011;4679;47.966;7.958;2023-08-06T16:39:24;1.47;;;0.50;;
9280;SDS011;4679;47.966;7.958;2023-08-06T16:41:29;0.70;;;0.60;;
9280;SDS011;4679;47.966;7.958;2023-08-06T16:43:30;0.40;;;0.30;;
9280;SDS011;4679;47.966;7.958;2023-08-06T16:45:32;1.27;;;0.40;;
9280;SDS011;4679;47.966;7.958;2023-08-06T16:47:37;0.57;;;0.50;;
9280;SDS011;4679;47.966;7.958;2023-08-06T16:49:39;1.07;;;0.30;;
9280;SDS011;4679;47.966;7.958;2023-08-06T16:51:40;1.73;;;0.50;;
9280;SDS011;4679;47.966;7.958;2023-08-06T16:53:41;1.87;;;0.43;;
9280;SDS011;4679;47.966;7.958;2023-08-06T16:55:44;2.83;;;0.50;;
9280;SDS011;4679;47.966;7.958;2023-08-06T16:57:46;1.93;;;0.50;;
9280;SDS011;4679;47.966;7.958;2023-08-06T16:59:48;0.57;;;0.50;;
9280;SDS011;4679;47.966;7.958;2023-08-06T17:01:49;0.63;;;0.50;;
9280;SDS011;4679;47.966;7.958;2023-08-06T17:03:51;1.10;;;0.60;;
9280;SDS011;4679;47.966;7.958;2023-08-06T17:05:54;1.47;;;0.60;;
9280;SDS011;4679;47.966;7.958;2023-08-06T17:07:56;2.03;;;0.50;;
9280;SDS011;4679;47.966;7.958;2023-08-06T17:09:58;0.50;;;0.50;;
9280;SDS011;4679;47.966;7.958;2023-08-06T17:11:59;0.63;;;0.63;;
9280;SDS011;4679;47.966;7.958;2023-08-06T17:14:02;0.70;;;0.50;;
9280;SDS011;4679;47.966;7.958;2023-08-06T17:16:04;0.90;;;0.50;;
9280;SDS011;4679;47.966;7.958;2023-08-06T17:18:06;1.10;;;0.60;;
9280;SDS011;4679;47.966;7.958;2023-08-06T17:20:09;1.13;;;0.70;;
9280;SDS011;4679;47.966;7.958;2023-08-06T17:22:12;0.90;;;0.90;;
9280;SDS011;4679;47.966;7.958;2023-08-06T17:24:13;3.50;;;0.60;;
9280;SDS011;4679;47.966;7.958;2023-08-06T17:26:15;2.37;;;1.00;;
9280;SDS011;4679;47.966;7.958;2023-08-06T17:28:16;1.20;;;0.77;;
9280;SDS011;4679;47.966;7.958;2023-08-06T17:30:19;1.33;;;0.57;;
9280;SDS011;4679;47.966;7.958;2023-08-06T17:32:21;0.97;;;0.67;;
9280;SDS011;4679;47.966;7.958;2023-08-06T17:34:23;2.20;;;0.90;;
9280;SDS011;4679;47.966;7.958;2023-08-06T17:36:24;1.13;;;0.70;;
9280;SDS011;4679;47.966;7.958;2023-08-06T17:38:26;2.97;;;0.97;;
9280;SDS011;4679;47.966;7.958;2023-08-06T17:40:28;1.13;;;0.70;;
9280;SDS011;4679;47.966;7.958;2023-08-06T17:42:28;2.30;;;0.90;;
9280;SDS011;4679;47.966;7.958;2023-08-06T17:44:30;3.70;;;0.77;;
9280;SDS011;4679;47.966;7.958;2023-08-06T17:46:33;0.60;;;0.60;;
9280;SDS011;4679;47.966;7.958;2023-08-06T17:48:35;0.60;;;0.60;;
9280;SDS011;4679;47.966;7.958;2023-08-06T17:50:36;1.80;;;0.57;;
9280;SDS011;4679;47.966;7.958;2023-08-06T17:52:37;0.93;;;0.50;;
9280;SDS011;4679;47.966;7.958;2023-08-06T17:54:39;3.67;;;0.67;;
9280;SDS011;4679;47.966;7.958;2023-08-06T17:56:40;0.70;;;0.60;;
9280;SDS011;4679;47.966;7.958;2023-08-06T17:58:42;0.50;;;0.50;;
9280;SDS011;4679;47.966;7.958;2023-08-06T18:00:44;2.00;;;1.43;;
9280;SDS011;4679;47.966;7.958;2023-08-06T18:02:50;1.30;;;0.50;;
9280;SDS011;4679;47.966;7.958;2023-08-06T18:04:51;0.50;;;0.50;;
9280;SDS011;4679;47.966;7.958;2023-08-06T18:06:53;0.60;;;0.50;;
9280;SDS011;4679;47.966;7.958;2023-08-06T18:08:54;0.50;;;0.50;;
9280;SDS011;4679;47.966;7.958;2023-08-06T18:10:56;1.17;;;0.50;;
9280;SDS011;4679;47.966;7.958;2023-08-06T18:12:57;1.07;;;0.60;;
9280;SDS011;4679;47.966;7.958;2023-08-06T18:14:59;1.23;;;0.57;;
9280;SDS011;4679;47.966;7.958;2023-08-06T18:17:00;0.60;;;0.47;;
9280;SDS011;4679;47.966;7.958;2023-08-06T18:19:03;0.57;;;0.57;;
9280;SDS011;4679;47.966;7.958;2023-08-06T18:21:05;0.50;;;0.40;;
9280;SDS011;4679;47.966;7.958;2023-08-06T18:23:07;2.70;;;0.60;;
9280;SDS011;4679;47.966;7.958;2023-08-06T18:25:08;1.27;;;0.60;;
9280;SDS011;4679;47.966;7.958;2023-08-06T18:27:10;0.60;;;0.50;;
9280;SDS011;4679;47.966;7.958;2023-08-06T18:29:17;0.97;;;0.50;;
9280;SDS011;4679;47.966;7.958;2023-08-06T18:31:18;0.80;;;0.60;;
9280;SDS011;4679;47.966;7.958;2023-08-06T18:33:20;0.83;;;0.57;;
9280;SDS011;4679;47.966;7.958;2023-08-06T18:35:23;0.80;;;0.70;;
9280;SDS011;4679;47.966;7.958;2023-08-06T18:37:25;0.90;;;0.80;;
9280;SDS011;4679;47.966;7.958;2023-08-06T18:39:27;0.73;;;0.60;;
9280;SDS011;4679;47.966;7.958;2023-08-06T18:41:28;3.97;;;0.70;;
9280;SDS011;4679;47.966;7.958;2023-08-06T18:43:30;0.70;;;0.50;;
9280;SDS011;4679;47.966;7.958;2023-08-06T18:45:32;0.70;;;0.70;;
9280;SDS011;4679;47.966;7.958;2023-08-06T18:47:39;0.70;;;0.50;;
9280;SDS011;4679;47.966;7.958;2023-08-06T18:49:40;1.80;;;0.50;;
9280;SDS011;4679;47.966;7.958;2023-08-06T18:51:43;0.70;;;0.50;;
9280;SDS011;4679;47.966;7.958;2023-08-06T18:53:45;0.80;;;0.60;;
9280;SDS011;4679;47.966;7.958;2023-08-06T18:55:47;1.80;;;0.70;;
9280;SDS011;4679;47.966;7.958;2023-08-06T18:57:49;0.63;;;0.60;;
9280;SDS011;4679;47.966;7.958;2023-08-06T18:59:51;1.70;;;0.57;;
9280;SDS011;4679;47.966;7.958;2023-08-06T19:01:52;0.80;;;0.60;;
9280;SDS011;4679;47.966;7.958;2023-08-06T19:03:53;0.70;;;0.60;;
9280;SDS011;4679;47.966;7.958;2023-08-06T19:05:57;1.47;;;0.50;;
9280;SDS011;4679;47.966;7.958;2023-08-06T19:08:00;1.47;;;0.70;;
9280;SDS011;4679;47.966;7.958;2023-08-06T19:10:03;2.93;;;0.63;;
9280;SDS011;4679;47.966;7.958;2023-08-06T19:12:06;1.23;;;0.50;;
9280;SDS011;4679;47.966;7.958;2023-08-06T19:14:08;0.50;;;0.50;;
9280;SDS011;4679;47.966;7.958;2023-08-06T19:16:09;1.13;;;0.60;;
9280;SDS011;4679;47.966;7.958;2023-08-06T19:18:11;1.47;;;0.50;;
9280;SDS011;4679;47.966;7.958;2023-08-06T19:20:13;0.70;;;0.60;;
9280;SDS011;4679;47.966;7.958;2023-08-06T19:22:14;0.70;;;0.67;;
9280;SDS011;4679;47.966;7.958;2023-08-06T19:24:17;1.27;;;0.60;;
9280;SDS011;4679;47.966;7.958;2023-08-06T19:26:19;1.50;;;0.47;;
9280;SDS011;4679;47.966;7.958;2023-08-06T19:28:21;2.10;;;0.70;;
9280;SDS011;4679;47.966;7.958;2023-08-06T19:30:23;0.60;;;0.50;;
9280;SDS011;4679;47.966;7.958;2023-08-06T19:32:24;1.40;;;0.70;;